createdAt,value
2019-02-18T00:00:55.332Z,28.33
2019-02-18T00:03:26.186Z,27.47
2019-02-18T00:05:57.017Z,28.53
2019-02-18T00:08:29.499Z,26.10
2019-02-18T00:10:59.923Z,26.27
2019-02-18T00:13:30.761Z,26.27
2019-02-18T00:16:01.472Z,25.67
2019-02-18T00:18:31.877Z,25.77
2019-02-18T00:21:02.664Z,28.30
2019-02-18T00:23:33.125Z,27.03
2019-02-18T00:26:03.996Z,26.90
2019-02-18T00:28:36.846Z,27.97
2019-02-18T00:31:06.929Z,28.87
2019-02-18T00:33:37.656Z,27.27
2019-02-18T00:36:08.519Z,26.50
2019-02-18T00:38:39.223Z,29.60
2019-02-18T00:41:10.064Z,26.67
2019-02-18T00:43:40.985Z,26.03
2019-02-18T00:46:11.735Z,26.87
2019-02-18T00:48:42.717Z,28.30
2019-02-18T00:51:13.227Z,26.30
2019-02-18T00:53:44.049Z,29.37
2019-02-18T00:56:14.883Z,28.90
2019-02-18T00:58:45.714Z,26.43
2019-02-18T01:01:16.535Z,28.30
2019-02-18T01:03:47.056Z,26.53
2019-02-18T01:06:17.734Z,28.90
2019-02-18T01:08:48.669Z,29.77
2019-02-18T01:11:19.486Z,28.77
2019-02-18T01:13:50.320Z,27.50
2019-02-18T01:16:20.811Z,25.47
2019-02-18T01:18:51.588Z,28.97
2019-02-18T01:21:22.322Z,28.43
2019-02-18T01:23:53.218Z,25.87
2019-02-18T01:26:23.988Z,29.70
2019-02-18T01:28:54.735Z,26.73
2019-02-18T01:31:25.456Z,26.53
2019-02-18T01:33:56.299Z,27.03
2019-02-18T01:36:27.139Z,27.60
2019-02-18T01:38:58.089Z,27.33
2019-02-18T01:41:28.906Z,29.63
2019-02-18T01:43:59.602Z,30.47
2019-02-18T01:46:30.397Z,30.10
2019-02-18T01:49:00.900Z,26.87
2019-02-18T01:51:31.698Z,28.57
2019-02-18T01:54:02.575Z,28.73
2019-02-18T01:56:32.951Z,25.10
2019-02-18T01:59:03.748Z,29.10
2019-02-18T02:01:34.577Z,29.40
2019-02-18T02:04:05.429Z,29.80
2019-02-18T02:06:36.257Z,29.73
2019-02-18T02:09:09.533Z,28.13
2019-02-18T02:11:40.287Z,33.10
2019-02-18T02:14:11.022Z,33.20
2019-02-18T02:16:41.469Z,34.63
2019-02-18T02:19:12.311Z,31.97
2019-02-18T02:21:43.111Z,31.10
2019-02-18T02:24:13.970Z,29.47
2019-02-18T02:26:44.785Z,30.73
2019-02-18T02:29:15.641Z,32.93
2019-02-18T02:31:46.458Z,35.17
2019-02-18T02:34:17.409Z,33.27
2019-02-18T02:36:47.902Z,30.77
2019-02-18T02:39:18.463Z,34.77
2019-02-18T02:41:48.848Z,36.33
2019-02-18T02:44:19.535Z,37.03
2019-02-18T02:46:50.268Z,28.60
2019-02-18T02:49:21.095Z,32.37
2019-02-18T02:51:51.945Z,27.40
2019-02-18T02:54:22.963Z,30.30
2019-02-18T02:56:53.836Z,29.73
2019-02-18T02:59:24.667Z,29.27
2019-02-18T03:01:55.511Z,27.70
2019-02-18T03:04:26.314Z,30.20
2019-02-18T03:06:57.137Z,30.57
2019-02-18T03:09:27.978Z,29.53
2019-02-18T03:11:58.822Z,28.43
2019-02-18T03:14:29.208Z,30.33
2019-02-18T03:17:00.070Z,28.50
2019-02-18T03:19:30.842Z,29.20
2019-02-18T03:22:01.686Z,28.97
2019-02-18T03:24:32.497Z,29.73
2019-02-18T03:27:03.228Z,29.03
2019-02-18T03:29:45.428Z,32.63
2019-02-18T03:32:16.327Z,30.93
2019-02-18T03:34:46.723Z,30.60
2019-02-18T03:37:17.651Z,31.73
2019-02-18T03:39:48.379Z,28.60
2019-02-18T03:42:19.118Z,30.33
2019-02-18T03:44:49.831Z,28.97
2019-02-18T03:47:20.676Z,27.50
2019-02-18T03:49:51.500Z,29.33
2019-02-18T03:52:22.212Z,29.40
2019-02-18T03:54:52.976Z,26.83
2019-02-18T03:57:23.712Z,30.70
2019-02-18T03:59:54.529Z,28.50
2019-02-18T04:02:25.377Z,28.83
2019-02-18T04:04:56.220Z,29.07
2019-02-18T04:07:27.066Z,28.57
2019-02-18T04:09:57.589Z,27.97
2019-02-18T04:12:28.055Z,29.63
2019-02-18T04:14:58.856Z,30.93
2019-02-18T04:17:29.856Z,30.80
2019-02-18T04:20:00.727Z,30.17
2019-02-18T04:22:31.568Z,30.40
2019-02-18T04:25:02.357Z,28.53
2019-02-18T04:27:33.658Z,29.70
2019-02-18T04:30:09.814Z,29.97
2019-02-18T04:32:40.667Z,30.67
2019-02-18T04:35:11.584Z,28.37
2019-02-18T04:37:42.101Z,26.03
2019-02-18T04:40:12.946Z,30.33
2019-02-18T04:42:43.689Z,29.47
2019-02-18T04:45:14.170Z,29.63
2019-02-18T04:47:45.060Z,28.63
2019-02-18T04:50:15.447Z,28.60
2019-02-18T04:52:46.145Z,28.63
2019-02-18T04:55:16.841Z,29.47
2019-02-18T04:57:47.575Z,30.77
2019-02-18T05:00:18.332Z,31.23
2019-02-18T05:02:49.305Z,28.17
2019-02-18T05:05:20.003Z,26.13
2019-02-18T05:07:50.823Z,26.07
2019-02-18T05:10:21.570Z,30.07
2019-02-18T05:12:52.412Z,29.50
2019-02-18T05:15:23.247Z,27.73
2019-02-18T05:17:53.992Z,27.20
2019-02-18T05:20:24.798Z,29.13
2019-02-18T05:22:55.557Z,28.83
2019-02-18T05:25:26.273Z,31.40
2019-02-18T05:27:57.103Z,28.57
2019-02-18T05:30:29.460Z,29.00
2019-02-18T05:33:00.025Z,30.83
2019-02-18T05:35:30.883Z,31.43
2019-02-18T05:38:01.704Z,28.50
2019-02-18T05:40:32.508Z,31.10
2019-02-18T05:43:03.256Z,31.13
2019-02-18T05:45:34.032Z,29.20
2019-02-18T05:48:04.523Z,30.73
2019-02-18T05:50:34.912Z,28.00
2019-02-18T05:53:05.661Z,29.53
2019-02-18T05:55:36.059Z,30.67
2019-02-18T05:58:06.846Z,30.63
2019-02-18T06:00:37.575Z,29.63
2019-02-18T06:03:08.411Z,29.30
2019-02-18T06:05:39.262Z,31.90
2019-02-18T06:08:10.092Z,32.10
2019-02-18T06:10:40.824Z,32.20
2019-02-18T06:13:11.654Z,28.03
2019-02-18T06:15:42.410Z,28.80
2019-02-18T06:18:13.256Z,31.17
2019-02-18T06:20:44.094Z,31.53
2019-02-18T06:23:15.544Z,29.10
2019-02-18T06:25:53.327Z,30.63
2019-02-18T06:28:25.486Z,28.97
2019-02-18T06:30:56.243Z,29.27
2019-02-18T06:33:28.367Z,30.57
2019-02-18T06:35:59.437Z,28.43
2019-02-18T06:38:30.327Z,32.43
2019-02-18T06:41:01.228Z,30.90
2019-02-18T06:43:32.039Z,29.07
2019-02-18T06:46:04.527Z,32.13
2019-02-18T06:48:38.138Z,29.87
2019-02-18T06:51:08.668Z,28.87
2019-02-18T06:53:39.522Z,28.13
2019-02-18T06:56:10.321Z,31.10
2019-02-18T06:58:42.812Z,33.50
2019-02-18T07:01:21.376Z,32.10
2019-02-18T07:03:56.979Z,30.50
2019-02-18T07:06:32.420Z,29.43
2019-02-18T07:09:05.001Z,28.87
2019-02-18T07:11:43.631Z,32.47
2019-02-18T07:14:14.456Z,30.67
2019-02-18T07:16:45.289Z,32.10
2019-02-18T07:19:16.866Z,27.00
2019-02-18T07:21:47.771Z,31.43
2019-02-18T07:24:18.636Z,27.80
2019-02-18T07:26:49.535Z,29.60
2019-02-18T07:29:19.918Z,27.03
2019-02-18T07:31:50.735Z,29.83
2019-02-18T07:34:21.759Z,27.63
2019-02-18T07:36:52.711Z,30.57
2019-02-18T07:39:23.545Z,29.87
2019-02-18T07:41:54.388Z,30.80
2019-02-18T07:44:25.712Z,30.50
2019-02-18T07:46:56.652Z,27.40
2019-02-18T07:49:27.489Z,28.07
2019-02-18T07:51:58.336Z,26.47
2019-02-18T07:54:29.326Z,29.10
2019-02-18T07:57:01.740Z,27.10
2019-02-18T07:59:32.585Z,28.20
2019-02-18T08:02:03.523Z,29.83
2019-02-18T08:04:33.919Z,29.27
2019-02-18T08:07:04.687Z,25.63
2019-02-18T08:09:35.076Z,33.00
2019-02-18T08:12:05.848Z,31.17
2019-02-18T08:14:36.682Z,29.37
2019-02-18T08:17:07.535Z,28.97
2019-02-18T08:19:38.022Z,26.70
2019-02-18T08:22:08.986Z,25.80
2019-02-18T08:24:39.813Z,32.00
2019-02-18T08:27:10.664Z,26.90
2019-02-18T08:29:41.218Z,28.83
2019-02-18T08:32:12.131Z,28.20
2019-02-18T08:34:42.899Z,26.80
2019-02-18T08:37:13.702Z,26.63
2019-02-18T08:39:44.414Z,25.57
2019-02-18T08:42:15.264Z,27.40
2019-02-18T08:44:46.098Z,25.93
2019-02-18T08:47:16.941Z,27.27
2019-02-18T08:49:47.746Z,27.03
2019-02-18T08:52:18.151Z,27.17
2019-02-18T08:54:56.183Z,27.30
2019-02-18T08:57:21.898Z,25.47
2019-02-18T08:59:53.278Z,26.67
2019-02-18T09:02:25.924Z,25.07
2019-02-18T09:04:56.815Z,22.70
2019-02-18T09:07:27.622Z,26.57
2019-02-18T09:09:58.458Z,26.37
2019-02-18T09:12:29.294Z,26.23
2019-02-18T09:15:02.689Z,22.87
2019-02-18T09:17:33.182Z,23.37
2019-02-18T09:20:04.100Z,27.03
2019-02-18T09:22:51.575Z,24.33
2019-02-18T09:25:24.097Z,24.17
2019-02-18T09:27:54.929Z,24.60
2019-02-18T09:30:27.474Z,24.40
2019-02-18T09:32:58.348Z,26.80
2019-02-18T09:35:29.143Z,23.90
2019-02-18T09:37:59.906Z,24.80
2019-02-18T09:40:30.728Z,22.30
2019-02-18T09:43:01.835Z,23.30
2019-02-18T09:45:32.983Z,22.30
2019-02-18T09:48:03.751Z,25.77
2019-02-18T09:50:35.679Z,21.93
2019-02-18T09:53:06.342Z,24.37
2019-02-18T09:55:36.807Z,24.27
2019-02-18T09:58:07.553Z,22.37
2019-02-18T10:00:38.515Z,23.27
2019-02-18T10:03:11.209Z,24.10
2019-02-18T10:05:41.792Z,23.23
2019-02-18T10:08:12.701Z,23.40
2019-02-18T10:10:43.570Z,21.03
2019-02-18T10:13:15.865Z,23.67
2019-02-18T10:15:46.733Z,26.10
2019-02-18T10:18:17.572Z,25.33
2019-02-18T10:20:48.005Z,23.93
2019-02-18T10:23:18.939Z,25.63
2019-02-18T10:25:49.780Z,25.30
2019-02-18T10:28:20.633Z,25.30
2019-02-18T10:30:53.112Z,22.93
2019-02-18T10:33:23.949Z,24.17
2019-02-18T10:35:54.886Z,24.23
2019-02-18T10:38:26.632Z,21.70
2019-02-18T10:41:06.378Z,24.90
2019-02-18T10:43:32.350Z,25.30
2019-02-18T10:46:02.579Z,22.60
2019-02-18T10:48:33.585Z,24.60
2019-02-18T10:51:04.420Z,22.43
2019-02-18T10:53:35.009Z,22.00
2019-02-18T10:56:07.459Z,23.90
2019-02-18T10:58:37.932Z,23.20
2019-02-18T11:01:11.095Z,20.00
2019-02-18T11:03:41.963Z,19.57
2019-02-18T11:06:12.777Z,22.03
2019-02-18T11:08:43.535Z,19.20
2019-02-18T11:11:17.245Z,21.27
2019-02-18T11:13:47.426Z,21.90
2019-02-18T11:16:18.283Z,21.03
2019-02-18T11:18:49.248Z,19.43
2019-02-18T11:21:21.324Z,21.07
2019-02-18T11:23:52.238Z,23.10
2019-02-18T11:26:23.074Z,23.77
2019-02-18T11:28:54.653Z,21.63
2019-02-18T11:31:27.015Z,20.53
2019-02-18T11:33:57.873Z,32.07
2019-02-18T11:36:28.776Z,21.20
2019-02-18T11:38:59.852Z,19.87
2019-02-18T11:41:30.572Z,19.87
2019-02-18T11:44:01.949Z,21.43
2019-02-18T11:46:32.754Z,19.13
2019-02-18T11:49:03.180Z,19.40
2019-02-18T11:51:34.014Z,20.37
2019-02-18T11:54:04.854Z,20.13
2019-02-18T11:56:36.527Z,20.87
2019-02-18T11:59:07.305Z,21.90
2019-02-18T12:01:38.097Z,18.27
2019-02-18T12:04:08.623Z,20.60
2019-02-18T12:06:39.421Z,19.87
2019-02-18T12:09:10.403Z,21.30
2019-02-18T12:11:41.785Z,20.00
2019-02-18T12:14:12.671Z,18.47
2019-02-18T12:16:43.641Z,21.10
2019-02-18T12:19:14.503Z,20.30
2019-02-18T12:21:45.369Z,22.30
2019-02-18T12:24:16.503Z,21.20
2019-02-18T12:26:47.377Z,20.57
2019-02-18T12:29:26.321Z,22.20
2019-02-18T12:31:50.780Z,20.90
2019-02-18T12:34:21.694Z,21.27
2019-02-18T12:36:53.103Z,19.87
2019-02-18T12:39:23.980Z,20.43
2019-02-18T12:41:54.849Z,20.00
2019-02-18T12:44:27.500Z,23.67
2019-02-18T12:46:58.507Z,20.70
2019-02-18T12:49:30.032Z,18.03
2019-02-18T12:52:00.969Z,19.30
2019-02-18T12:54:31.873Z,18.90
2019-02-18T12:57:03.476Z,21.50
2019-02-18T12:59:34.512Z,22.87
2019-02-18T13:02:05.404Z,20.67
2019-02-18T13:04:38.600Z,22.10
2019-02-18T13:07:09.537Z,17.10
2019-02-18T13:09:40.478Z,23.13
2019-02-18T13:12:11.710Z,23.87
2019-02-18T13:14:42.562Z,22.67
2019-02-18T13:17:13.513Z,19.53
2019-02-18T13:19:44.636Z,20.37
2019-02-18T13:22:15.503Z,20.03
2019-02-18T13:24:47.983Z,19.37
2019-02-18T13:27:18.931Z,20.87
2019-02-18T13:29:49.890Z,21.57
2019-02-18T13:32:20.422Z,21.23
2019-02-18T13:34:51.429Z,22.80
2019-02-18T13:37:21.963Z,18.30
2019-02-18T13:39:53.004Z,20.80
2019-02-18T13:42:23.923Z,23.10
2019-02-18T13:44:54.845Z,17.77
2019-02-18T13:47:25.993Z,20.93
2019-02-18T13:49:59.858Z,20.73
2019-02-18T13:52:30.752Z,20.23
2019-02-18T13:55:02.216Z,19.30
2019-02-18T13:57:32.929Z,18.77
2019-02-18T14:00:07.059Z,21.17
2019-02-18T14:02:37.600Z,20.87
2019-02-18T14:05:08.922Z,19.43
2019-02-18T14:07:39.970Z,19.67
2019-02-18T14:10:10.808Z,21.40
2019-02-18T14:12:42.068Z,20.10
2019-02-18T14:15:14.704Z,20.23
2019-02-18T14:17:45.788Z,19.57
2019-02-18T14:20:19.075Z,17.73
2019-02-18T14:22:51.540Z,20.60
2019-02-18T14:25:22.512Z,19.67
2019-02-18T14:27:54.560Z,19.07
2019-02-18T14:30:25.722Z,23.83
2019-02-18T14:32:56.643Z,18.93
2019-02-18T14:35:27.950Z,17.37
2019-02-18T14:37:58.552Z,18.27
2019-02-18T14:40:29.462Z,18.93
2019-02-18T14:43:00.404Z,22.17
2019-02-18T14:45:31.108Z,18.37
2019-02-18T14:48:01.667Z,18.37
2019-02-18T14:50:33.123Z,17.20
2019-02-18T14:53:03.928Z,20.13
2019-02-18T14:55:34.650Z,19.17
2019-02-18T14:58:06.090Z,18.03
2019-02-18T15:00:37.437Z,18.60
2019-02-18T15:03:09.084Z,18.50
2019-02-18T15:05:40.054Z,19.37
2019-02-18T15:08:11.396Z,19.63
2019-02-18T15:10:42.455Z,20.80
2019-02-18T15:13:13.785Z,20.50
2019-02-18T15:15:45.420Z,22.30
2019-02-18T15:18:17.229Z,19.73
2019-02-18T15:20:47.847Z,20.87
2019-02-18T15:23:18.398Z,23.50
2019-02-18T15:25:49.960Z,20.63
2019-02-18T15:28:20.958Z,21.90
2019-02-18T15:30:51.837Z,22.87
2019-02-18T15:33:22.833Z,22.27
2019-02-18T15:35:53.358Z,22.27
2019-02-18T15:38:24.227Z,20.33
2019-02-18T15:40:55.176Z,21.00
2019-02-18T15:43:26.771Z,21.93
2019-02-18T15:45:58.421Z,22.43
2019-02-18T15:48:29.215Z,18.83
2019-02-18T15:51:00.187Z,20.07
2019-02-18T15:53:31.011Z,20.73
2019-02-18T15:56:01.929Z,19.73
2019-02-18T15:58:34.566Z,20.60
2019-02-18T16:01:06.223Z,24.20
2019-02-18T16:03:37.111Z,22.00
2019-02-18T16:06:08.041Z,20.83
2019-02-18T16:08:38.964Z,19.47
2019-02-18T16:11:09.833Z,20.60
2019-02-18T16:13:40.758Z,23.63
2019-02-18T16:16:11.742Z,25.50
2019-02-18T16:18:42.609Z,22.03
2019-02-18T16:21:13.888Z,22.73
2019-02-18T16:23:44.820Z,22.13
2019-02-18T16:26:17.329Z,21.77
2019-02-18T16:28:48.264Z,21.67
2019-02-18T16:31:18.882Z,20.90
2019-02-18T16:33:49.733Z,22.20
2019-02-18T16:36:20.762Z,22.20
2019-02-18T16:38:51.749Z,23.53
2019-02-18T16:41:23.830Z,23.83
2019-02-18T16:43:54.774Z,23.77
2019-02-18T16:46:25.702Z,23.23
2019-02-18T16:48:58.150Z,21.80
2019-02-18T16:51:29.162Z,22.73
2019-02-18T16:54:00.743Z,24.17
2019-02-18T16:56:31.664Z,23.80
2019-02-18T16:59:03.200Z,24.00
2019-02-18T17:01:34.236Z,21.47
2019-02-18T17:04:05.312Z,23.63
2019-02-18T17:06:36.335Z,24.57
2019-02-18T17:09:11.686Z,26.83
2019-02-18T17:11:43.045Z,31.43
2019-02-18T17:14:16.672Z,36.83
2019-02-18T17:16:47.239Z,32.20
2019-02-18T17:19:18.220Z,29.63
2019-02-18T17:21:49.152Z,26.47
2019-02-18T17:24:20.093Z,28.07
2019-02-18T17:26:50.900Z,24.93
2019-02-18T17:29:21.842Z,21.30
2019-02-18T17:31:52.663Z,25.10
2019-02-18T17:34:23.586Z,23.30
2019-02-18T17:36:54.956Z,24.67
2019-02-18T17:39:25.929Z,26.60
2019-02-18T17:41:56.852Z,23.73
2019-02-18T17:44:27.683Z,24.90
2019-02-18T17:46:58.825Z,25.83
2019-02-18T17:49:29.806Z,24.47
2019-02-18T17:52:00.828Z,26.97
2019-02-18T17:54:31.295Z,24.07
2019-02-18T17:57:02.257Z,29.03
2019-02-18T17:59:33.395Z,25.33
2019-02-18T18:02:04.429Z,24.67
2019-02-18T18:04:36.301Z,27.87
2019-02-18T18:07:06.894Z,28.57
2019-02-18T18:09:37.760Z,23.77
2019-02-18T18:12:08.361Z,26.10
2019-02-18T18:14:39.232Z,25.50
2019-02-18T18:17:10.518Z,24.67
2019-02-18T18:19:41.328Z,25.70
2019-02-18T18:22:12.294Z,25.73
2019-02-18T18:24:43.247Z,26.37
2019-02-18T18:27:14.170Z,28.00
2019-02-18T18:29:44.961Z,27.37
2019-02-18T18:32:15.956Z,26.43
2019-02-18T18:34:46.876Z,29.23
2019-02-18T18:37:17.802Z,37.87
2019-02-18T18:39:48.707Z,33.20
2019-02-18T18:42:19.564Z,25.73
2019-02-18T18:44:50.503Z,27.47
2019-02-18T18:47:21.440Z,23.73
2019-02-18T18:49:52.324Z,25.87
2019-02-18T18:52:23.217Z,23.80
2019-02-18T18:54:54.656Z,24.23
2019-02-18T18:57:25.798Z,26.57
2019-02-18T18:59:56.383Z,28.00
2019-02-18T19:02:27.202Z,29.23
2019-02-18T19:04:58.080Z,25.60
2019-02-18T19:07:30.416Z,26.83
2019-02-18T19:10:01.403Z,28.13
2019-02-18T19:12:32.512Z,28.57
2019-02-18T19:15:03.431Z,27.83
2019-02-18T19:17:34.368Z,28.57
2019-02-18T19:20:06.276Z,27.50
2019-02-18T19:22:36.854Z,27.63
2019-02-18T19:25:09.782Z,26.77
2019-02-18T19:27:40.884Z,28.40
2019-02-18T19:30:17.784Z,26.73
2019-02-18T19:32:50.005Z,25.93
2019-02-18T19:35:20.971Z,25.70
2019-02-18T19:37:55.863Z,27.90
2019-02-18T19:40:26.654Z,29.33
2019-02-18T19:42:57.602Z,30.83
2019-02-18T19:45:28.747Z,28.20
2019-02-18T19:47:59.662Z,28.43
2019-02-18T19:50:30.642Z,34.60
2019-02-18T19:53:01.867Z,28.67
2019-02-18T19:55:33.250Z,26.30
2019-02-18T19:58:04.553Z,26.90
2019-02-18T20:00:35.783Z,27.80
2019-02-18T20:03:09.101Z,31.63
2019-02-18T20:05:41.788Z,29.47
2019-02-18T20:08:12.702Z,27.33
2019-02-18T20:10:43.279Z,28.33
2019-02-18T20:13:14.366Z,28.00
2019-02-18T20:15:45.241Z,29.90
2019-02-18T20:18:16.173Z,28.97
2019-02-18T20:20:46.738Z,32.77
2019-02-18T20:23:17.646Z,31.77
2019-02-18T20:25:48.575Z,30.60
2019-02-18T20:28:19.517Z,31.03
2019-02-18T20:30:50.468Z,30.40
2019-02-18T20:33:21.015Z,28.47
2019-02-18T20:35:52.315Z,33.93
2019-02-18T20:38:23.409Z,31.20
2019-02-18T20:40:54.429Z,28.33
2019-02-18T20:43:25.420Z,27.03
2019-02-18T20:45:58.484Z,27.43
2019-02-18T20:48:29.800Z,28.63
2019-02-18T20:51:00.840Z,29.67
2019-02-18T20:53:31.686Z,29.27
2019-02-18T20:56:02.714Z,28.70
2019-02-18T20:58:33.822Z,32.00
2019-02-18T21:01:05.081Z,30.47
2019-02-18T21:03:36.028Z,28.73
2019-02-18T21:06:06.647Z,32.10
2019-02-18T21:08:37.521Z,28.20
2019-02-18T21:14:14.340Z,28.27
2019-02-18T21:16:40.110Z,29.03
2019-02-18T21:19:12.075Z,32.87
2019-02-18T21:21:44.687Z,30.90
2019-02-18T21:24:15.238Z,27.87
2019-02-18T21:26:46.834Z,26.83
2019-02-18T21:29:17.787Z,29.30
2019-02-18T21:31:48.388Z,26.93
2019-02-18T21:34:19.697Z,27.90
2019-02-18T21:36:50.585Z,28.27
2019-02-18T21:39:24.793Z,26.47
2019-02-18T21:41:55.790Z,27.57
2019-02-18T21:44:27.536Z,26.03
2019-02-18T21:46:58.771Z,29.07
2019-02-18T21:49:31.315Z,26.40
2019-02-18T21:52:04.953Z,27.77
2019-02-18T21:54:35.895Z,25.83
2019-02-18T21:57:06.802Z,26.13
2019-02-18T21:59:37.616Z,26.93
2019-02-18T22:02:08.566Z,35.17
2019-02-18T22:04:39.431Z,46.40
2019-02-18T22:07:10.414Z,30.63
2019-02-18T22:09:47.457Z,24.37
2019-02-18T22:12:18.363Z,24.77
2019-02-18T22:14:49.119Z,26.60
2019-02-18T22:17:22.698Z,26.63
2019-02-18T22:19:53.561Z,25.83
2019-02-18T22:22:24.430Z,24.20
2019-02-18T22:24:55.822Z,24.27
2019-02-18T22:27:26.652Z,26.77
2019-02-18T22:29:57.131Z,23.77
2019-02-18T22:32:28.020Z,27.60
2019-02-18T22:34:58.443Z,24.60
2019-02-18T22:37:29.180Z,25.77
2019-02-18T22:40:00.106Z,27.43
2019-02-18T22:42:30.953Z,27.87
2019-02-18T22:45:01.793Z,26.77
2019-02-18T22:47:32.694Z,25.20
2019-02-18T22:50:03.624Z,25.63
2019-02-18T22:52:35.056Z,29.63
2019-02-18T22:55:08.021Z,26.90
2019-02-18T22:57:38.838Z,26.80
2019-02-18T23:00:32.622Z,27.40
2019-02-18T23:03:03.483Z,28.03
2019-02-18T23:05:34.385Z,27.90
2019-02-18T23:08:05.373Z,26.27
2019-02-18T23:10:36.298Z,25.83
2019-02-18T23:13:07.114Z,25.80
2019-02-18T23:15:38.481Z,27.87
2019-02-18T23:18:09.013Z,24.50
2019-02-18T23:20:39.834Z,23.10
2019-02-18T23:23:10.677Z,27.03
2019-02-18T23:25:41.400Z,25.80
2019-02-18T23:28:12.237Z,25.30
2019-02-18T23:30:43.100Z,23.53
2019-02-18T23:33:14.117Z,25.70
2019-02-18T23:35:44.867Z,27.27
2019-02-18T23:38:15.444Z,24.73
2019-02-18T23:40:46.237Z,26.90
2019-02-18T23:43:17.561Z,25.43
2019-02-18T23:45:48.454Z,25.47
2019-02-18T23:48:19.272Z,23.80
2019-02-18T23:50:49.647Z,26.40
2019-02-18T23:53:20.089Z,24.67
2019-02-18T23:55:50.828Z,25.23
2019-02-18T23:58:21.658Z,25.27
